createdAt,value
2022-10-01T00:02:41.673Z,5.15
2022-10-01T00:07:45.305Z,5.60
2022-10-01T00:12:48.570Z,5.40
2022-10-01T00:17:50.089Z,6.13
2022-10-01T00:22:52.357Z,6.28
2022-10-01T00:27:54.016Z,5.03
2022-10-01T00:32:55.743Z,5.60
2022-10-01T00:37:57.575Z,5.72
2022-10-01T00:42:59.108Z,5.70
2022-10-01T00:48:01.110Z,5.20
2022-10-01T00:53:08.916Z,5.65
2022-10-01T00:58:12.701Z,6.10
2022-10-01T01:03:15.013Z,5.70
2022-10-01T01:08:17.178Z,5.80
2022-10-01T01:13:39.405Z,5.43
2022-10-01T01:18:52.184Z,5.30
2022-10-01T01:23:59.418Z,5.40
2022-10-01T01:29:07.091Z,5.13
2022-10-01T01:34:13.223Z,5.50
2022-10-01T01:39:16.151Z,5.63
2022-10-01T01:44:24.626Z,5.78
2022-10-01T01:49:26.261Z,6.05
2022-10-01T01:54:29.510Z,5.20
2022-10-01T01:59:33.858Z,5.85
2022-10-01T02:04:47.341Z,6.13
2022-10-01T02:10:11.084Z,5.57
2022-10-01T02:15:41.952Z,6.00
2022-10-01T02:20:50.614Z,5.80
2022-10-01T02:25:57.932Z,5.50
2022-10-01T02:31:00.077Z,6.07
2022-10-01T02:36:04.863Z,6.28
2022-10-01T02:41:08.206Z,5.53
2022-10-01T02:46:21.498Z,5.63
2022-10-01T02:51:22.983Z,5.82
2022-10-01T02:56:48.819Z,6.30
2022-10-01T03:01:50.922Z,6.03
2022-10-01T03:06:53.145Z,6.10
2022-10-01T03:11:55.102Z,6.40
2022-10-01T03:16:56.643Z,5.72
2022-10-01T03:21:58.206Z,6.25
2022-10-01T03:27:00.084Z,6.13
2022-10-01T03:32:02.012Z,6.68
2022-10-01T03:37:04.092Z,6.20
2022-10-01T03:42:05.943Z,6.65
2022-10-01T03:47:07.515Z,6.30
2022-10-01T03:52:09.056Z,6.95
2022-10-01T03:57:10.594Z,6.40
2022-10-01T04:02:12.255Z,6.43
2022-10-01T04:07:13.934Z,6.93
2022-10-01T04:12:15.522Z,6.72
2022-10-01T04:17:17.187Z,6.20
2022-10-01T04:22:18.674Z,6.75
2022-10-01T04:27:20.160Z,6.00
2022-10-01T04:32:22.201Z,6.93
2022-10-01T04:37:24.226Z,6.60
2022-10-01T04:42:25.759Z,6.70
2022-10-01T04:47:27.323Z,6.88
2022-10-01T04:52:29.463Z,6.68
2022-10-01T04:57:31.038Z,7.40
2022-10-01T05:02:34.526Z,6.93
2022-10-01T05:07:36.693Z,6.93
2022-10-01T05:12:38.210Z,6.60
2022-10-01T05:17:39.844Z,6.88
2022-10-01T05:22:41.437Z,6.28
2022-10-01T05:27:43.125Z,6.88
2022-10-01T05:32:53.731Z,7.05
2022-10-01T05:37:57.197Z,7.00
2022-10-01T05:42:59.769Z,6.97
2022-10-01T05:48:05.953Z,6.85
2022-10-01T05:53:08.427Z,7.40
2022-10-01T05:58:16.599Z,6.75
2022-10-01T06:03:18.141Z,6.97
2022-10-01T06:08:19.666Z,6.50
2022-10-01T06:13:21.158Z,7.05
2022-10-01T06:18:22.868Z,7.10
2022-10-01T06:23:24.399Z,7.70
2022-10-01T06:28:28.177Z,7.53
2022-10-01T06:33:30.020Z,7.43
2022-10-01T06:38:31.532Z,7.05
2022-10-01T06:43:33.395Z,7.18
2022-10-01T06:48:36.546Z,6.97
2022-10-01T06:53:38.302Z,7.55
2022-10-01T06:58:39.842Z,6.55
2022-10-01T07:03:41.354Z,7.38
2022-10-01T07:08:42.869Z,7.03
2022-10-01T07:13:44.446Z,6.88
2022-10-01T07:18:45.974Z,6.70
2022-10-01T07:23:48.446Z,6.95
2022-10-01T07:28:49.949Z,7.03
2022-10-01T07:33:57.539Z,6.78
2022-10-01T07:39:00.681Z,6.38
2022-10-01T07:44:03.386Z,6.70
2022-10-01T07:49:05.186Z,6.53
2022-10-01T07:54:06.712Z,6.95
2022-10-01T07:59:10.079Z,5.95
2022-10-01T08:04:29.971Z,6.30
2022-10-01T08:09:31.601Z,6.55
2022-10-01T08:14:33.148Z,6.00
2022-10-01T08:19:36.270Z,6.60
2022-10-01T08:24:37.816Z,6.45
2022-10-01T08:29:43.236Z,6.28
2022-10-01T08:34:45.085Z,5.55
2022-10-01T08:39:46.685Z,4.97
2022-10-01T08:44:49.073Z,4.68
2022-10-01T08:49:59.347Z,4.72
2022-10-01T08:55:04.726Z,4.25
2022-10-01T09:00:12.246Z,4.88
2022-10-01T09:05:27.394Z,5.10
2022-10-01T09:10:42.182Z,5.18
2022-10-01T09:16:02.001Z,4.93
2022-10-01T09:21:12.162Z,5.22
2022-10-01T09:26:13.731Z,5.20
2022-10-01T09:31:19.955Z,4.88
2022-10-01T09:36:37.787Z,4.30
2022-10-01T09:41:39.357Z,4.20
2022-10-01T09:46:46.109Z,3.70
2022-10-01T09:51:54.610Z,3.33
2022-10-01T09:57:16.396Z,3.15
2022-10-01T10:02:23.939Z,2.80
2022-10-01T10:07:25.702Z,2.70
2022-10-01T10:12:29.893Z,2.70
2022-10-01T10:17:31.434Z,2.58
2022-10-01T10:22:33.065Z,2.75
2022-10-01T10:27:36.423Z,2.58
2022-10-01T10:32:39.656Z,2.80
2022-10-01T10:37:50.251Z,3.00
2022-10-01T10:42:55.959Z,3.05
2022-10-01T10:47:57.889Z,2.17
2022-10-01T10:52:59.640Z,2.40
2022-10-01T10:58:10.939Z,2.40
2022-10-01T11:03:14.849Z,2.22
2022-10-01T11:08:20.753Z,2.90
2022-10-01T11:13:40.773Z,3.50
2022-10-01T11:18:45.149Z,3.50
2022-10-01T11:24:08.081Z,3.47
2022-10-01T11:29:17.770Z,3.17
2022-10-01T11:35:02.263Z,3.20
2022-10-01T11:40:15.354Z,2.50
2022-10-01T11:45:21.365Z,3.05
2022-10-01T11:50:29.005Z,3.08
2022-10-01T11:56:00.345Z,2.80
2022-10-01T12:01:11.615Z,2.60
2022-10-01T12:06:14.775Z,2.75
2022-10-01T12:11:25.871Z,1.77
2022-10-01T12:16:57.183Z,1.50
2022-10-01T12:22:15.458Z,1.55
2022-10-01T12:27:32.794Z,1.60
2022-10-01T12:33:05.287Z,1.67
2022-10-01T12:38:13.971Z,1.50
2022-10-01T12:43:39.218Z,1.38
2022-10-01T12:49:10.498Z,1.30
2022-10-01T12:54:36.788Z,1.30
2022-10-01T12:59:44.485Z,0.88
2022-10-01T13:05:05.047Z,1.20
2022-10-01T13:10:25.271Z,1.20
2022-10-01T13:15:33.341Z,1.83
2022-10-01T13:20:43.713Z,1.65
2022-10-01T13:25:51.389Z,2.22
2022-10-01T13:31:01.759Z,2.17
2022-10-01T13:36:05.255Z,2.13
2022-10-01T13:41:22.545Z,2.30
2022-10-01T13:46:31.130Z,1.90
2022-10-01T13:51:37.745Z,2.20
2022-10-01T13:56:39.290Z,2.10
2022-10-01T14:01:42.282Z,2.10
2022-10-01T14:07:14.517Z,2.38
2022-10-01T14:12:52.671Z,2.20
2022-10-01T14:17:55.796Z,2.20
2022-10-01T14:22:59.917Z,1.98
2022-10-01T14:28:35.891Z,1.60
2022-10-01T14:34:16.391Z,1.50
2022-10-01T14:39:21.861Z,1.27
2022-10-01T14:44:24.725Z,1.10
2022-10-01T14:49:31.654Z,1.55
2022-10-01T14:54:51.466Z,1.20
2022-10-01T14:59:53.422Z,1.20
2022-10-01T15:04:56.902Z,0.77
2022-10-01T15:10:08.419Z,1.00
2022-10-01T15:15:28.192Z,1.20
2022-10-01T15:20:29.876Z,0.90
2022-10-01T15:25:31.789Z,1.02
2022-10-01T15:30:36.107Z,1.08
2022-10-01T15:35:37.721Z,1.00
2022-10-01T15:40:42.649Z,1.30
2022-10-01T15:45:44.298Z,1.00
2022-10-01T15:51:00.497Z,1.00
2022-10-01T15:56:10.503Z,1.10
2022-10-01T16:01:23.295Z,0.90
2022-10-01T16:06:27.563Z,0.80
2022-10-01T16:11:32.813Z,0.95
2022-10-01T16:16:34.541Z,0.93
2022-10-01T16:21:40.297Z,0.88
2022-10-01T16:26:42.087Z,1.10
2022-10-01T16:31:44.626Z,1.10
2022-10-01T16:36:46.779Z,1.05
2022-10-01T16:42:06.233Z,0.90
2022-10-01T16:47:11.801Z,1.00
2022-10-01T16:52:14.210Z,1.00
2022-10-01T16:57:16.571Z,1.00
2022-10-01T17:02:18.258Z,0.90
2022-10-01T17:07:19.781Z,1.20
2022-10-01T17:12:21.599Z,1.20
2022-10-01T17:17:23.063Z,0.95
2022-10-01T17:22:25.396Z,1.00
2022-10-01T17:27:26.959Z,1.30
2022-10-01T17:32:28.520Z,0.90
2022-10-01T17:37:30.029Z,1.10
2022-10-01T17:42:32.844Z,1.10
2022-10-01T17:47:34.366Z,1.30
2022-10-01T17:52:35.841Z,1.00
2022-10-01T17:57:37.317Z,1.05
2022-10-01T18:02:43.313Z,1.23
2022-10-01T18:07:45.366Z,1.40
2022-10-01T18:12:46.844Z,1.40
2022-10-01T18:17:52.196Z,1.10
2022-10-01T18:22:53.727Z,1.13
2022-10-01T18:27:55.255Z,1.10
2022-10-01T18:32:57.172Z,0.98
2022-10-01T18:38:03.698Z,1.10
2022-10-01T18:43:08.037Z,1.10
2022-10-01T18:48:21.798Z,0.90
2022-10-01T18:53:28.034Z,1.20
2022-10-01T18:58:38.032Z,1.23
2022-10-01T19:04:17.646Z,1.30
2022-10-01T19:09:31.378Z,1.20
2022-10-01T19:14:48.106Z,1.20
2022-10-01T19:19:57.336Z,1.30
2022-10-01T19:25:09.338Z,1.60
2022-10-01T19:30:15.841Z,1.10
2022-10-01T19:35:21.416Z,1.02
2022-10-01T19:40:45.887Z,1.10
2022-10-01T19:45:47.572Z,1.00
2022-10-01T19:51:02.155Z,1.30
2022-10-01T19:56:04.458Z,1.20
2022-10-01T20:01:06.060Z,1.20
2022-10-01T20:06:19.778Z,1.20
2022-10-01T20:11:30.784Z,1.38
2022-10-01T20:16:45.245Z,1.40
2022-10-01T20:22:18.592Z,1.10
2022-10-01T20:27:47.063Z,1.30
2022-10-01T20:32:56.190Z,1.50
2022-10-01T20:38:08.866Z,1.25
2022-10-01T20:43:15.825Z,1.40
2022-10-01T20:48:24.386Z,1.30
2022-10-01T20:53:40.762Z,1.40
2022-10-01T20:59:02.498Z,1.30
2022-10-01T21:04:07.618Z,1.30
2022-10-01T21:09:20.378Z,1.40
2022-10-01T21:14:34.480Z,1.40
2022-10-01T21:19:38.825Z,1.35
2022-10-01T21:24:46.367Z,1.30
2022-10-01T21:30:08.402Z,1.45
2022-10-01T21:35:30.733Z,1.38
2022-10-01T21:40:47.558Z,1.30
2022-10-01T21:46:02.344Z,1.40
2022-10-01T21:51:51.361Z,1.52
2022-10-01T21:57:07.290Z,1.35
2022-10-01T22:02:30.465Z,1.30
2022-10-01T22:07:58.504Z,1.40
2022-10-01T22:13:04.635Z,1.45
2022-10-01T22:18:10.604Z,1.25
2022-10-01T22:23:16.967Z,1.38
2022-10-01T22:28:22.978Z,1.20
2022-10-01T22:33:29.735Z,1.33
2022-10-01T22:38:37.034Z,1.60
2022-10-01T22:43:40.409Z,1.30
2022-10-01T22:49:10.616Z,1.38
2022-10-01T22:54:24.087Z,1.30
2022-10-01T22:59:47.221Z,1.20
2022-10-01T23:05:12.171Z,1.27
2022-10-01T23:10:18.239Z,1.30
2022-10-01T23:15:45.853Z,1.60
2022-10-01T23:20:54.101Z,1.60
2022-10-01T23:26:22.394Z,1.50
2022-10-01T23:31:45.428Z,1.50
2022-10-01T23:36:49.354Z,1.40
2022-10-01T23:41:58.503Z,1.35
2022-10-01T23:47:03.263Z,1.55
2022-10-01T23:52:39.973Z,1.48
2022-10-01T23:57:42.147Z,1.58
